createdAt,value
2016-11-18T00:00:41.403Z,8.28
2016-11-18T00:01:55.123Z,8.28
2016-11-18T00:03:07.811Z,8.27
2016-11-18T00:04:21.495Z,8.28
2016-11-18T00:05:35.195Z,8.25
2016-11-18T00:06:48.901Z,8.13
2016-11-18T00:08:02.663Z,8.27
2016-11-18T00:09:16.395Z,8.28
2016-11-18T00:10:30.359Z,8.16
2016-11-18T00:11:44.161Z,8.1
2016-11-18T00:12:57.873Z,8.27
2016-11-18T00:14:11.802Z,8.16
2016-11-18T00:15:25.563Z,8.23
2016-11-18T00:16:39.377Z,8.24
2016-11-18T00:17:53.066Z,8.16
2016-11-18T00:19:06.782Z,8.27
2016-11-18T00:20:20.478Z,8.23
2016-11-18T00:21:34.182Z,8.23
2016-11-18T00:22:47.895Z,8.23
2016-11-18T00:24:01.600Z,8.3
2016-11-18T00:25:15.291Z,8.28
2016-11-18T00:26:29.004Z,8.28
2016-11-18T00:27:43.009Z,8.25
2016-11-18T00:28:56.753Z,8.27
2016-11-18T00:30:10.454Z,8.37
2016-11-18T00:31:24.187Z,8.32
2016-11-18T00:32:37.892Z,8.4
2016-11-18T00:33:51.603Z,8.42
2016-11-18T00:35:05.521Z,8.37
2016-11-18T00:36:19.219Z,8.45
2016-11-18T00:37:32.925Z,8.49
2016-11-18T00:38:46.696Z,8.5
2016-11-18T00:40:00.382Z,8.52
2016-11-18T00:41:14.078Z,8.52
2016-11-18T00:42:27.784Z,8.52
2016-11-18T00:43:41.513Z,8.49
2016-11-18T00:44:55.220Z,8.6
2016-11-18T00:46:08.922Z,8.55
2016-11-18T00:47:22.623Z,8.52
2016-11-18T00:48:36.359Z,8.5
2016-11-18T00:49:50.120Z,8.58
2016-11-18T00:51:03.844Z,8.4
2016-11-18T00:52:16.259Z,8.57
2016-11-18T00:53:29.956Z,8.52
2016-11-18T00:54:42.429Z,8.53
2016-11-18T00:55:56.149Z,8.49
2016-11-18T00:57:09.870Z,8.58
2016-11-18T00:58:23.579Z,8.48
2016-11-18T00:59:37.316Z,8.57
2016-11-18T01:00:51.024Z,8.55
2016-11-18T01:02:04.794Z,8.45
2016-11-18T01:03:18.546Z,8.49
2016-11-18T01:04:32.475Z,8.45
2016-11-18T01:05:46.191Z,8.55
2016-11-18T01:06:59.887Z,8.45
2016-11-18T01:08:13.594Z,8.45
2016-11-18T01:09:27.298Z,8.45
2016-11-18T01:10:39.866Z,8.43
2016-11-18T01:11:53.560Z,8.5
2016-11-18T01:13:05.985Z,8.48
2016-11-18T01:14:19.685Z,8.48
2016-11-18T01:15:33.630Z,8.52
2016-11-18T01:16:47.359Z,8.57
2016-11-18T01:18:01.066Z,8.42
2016-11-18T01:19:14.788Z,8.55
2016-11-18T01:20:28.481Z,8.49
2016-11-18T01:21:40.922Z,8.52
2016-11-18T01:22:54.766Z,8.53
2016-11-18T01:24:08.489Z,8.5
2016-11-18T01:25:22.194Z,8.52
2016-11-18T01:26:35.891Z,8.53
2016-11-18T01:27:49.585Z,8.52
2016-11-18T01:29:03.282Z,8.52
2016-11-18T01:30:17.012Z,8.66
2016-11-18T01:31:29.426Z,8.53
2016-11-18T01:32:41.917Z,8.6
2016-11-18T01:33:55.629Z,8.6
2016-11-18T01:35:09.327Z,8.63
2016-11-18T01:36:23.039Z,8.61
2016-11-18T01:37:36.808Z,8.57
2016-11-18T01:38:50.657Z,8.58
2016-11-18T01:40:04.397Z,8.63
2016-11-18T01:41:18.107Z,8.64
2016-11-18T01:42:31.847Z,8.68
2016-11-18T01:43:45.551Z,8.74
2016-11-18T01:44:58.023Z,8.64
2016-11-18T01:46:11.719Z,8.63
2016-11-18T01:47:25.519Z,8.57
2016-11-18T01:48:39.212Z,8.64
2016-11-18T01:49:52.920Z,8.6
2016-11-18T01:51:06.626Z,8.6
2016-11-18T01:52:20.655Z,8.63
2016-11-18T01:53:33.077Z,8.58
2016-11-18T01:54:46.780Z,8.63
2016-11-18T01:55:59.360Z,8.61
2016-11-18T01:57:13.052Z,8.61
2016-11-18T01:58:26.789Z,8.57
2016-11-18T01:59:40.494Z,8.57
2016-11-18T02:00:54.190Z,8.6
2016-11-18T02:02:07.887Z,8.58
2016-11-18T02:03:21.586Z,8.63
2016-11-18T02:04:35.288Z,8.66
2016-11-18T02:05:48.996Z,8.61
2016-11-18T02:07:02.723Z,8.58
2016-11-18T02:08:16.684Z,8.66
2016-11-18T02:09:30.405Z,8.68
2016-11-18T02:10:44.098Z,8.63
2016-11-18T02:11:57.835Z,8.7
2016-11-18T02:13:11.544Z,8.61
2016-11-18T02:14:25.268Z,8.74
2016-11-18T02:15:38.971Z,8.6
2016-11-18T02:16:52.731Z,8.61
2016-11-18T02:18:05.144Z,8.6
2016-11-18T02:19:18.883Z,8.57
2016-11-18T02:20:31.318Z,8.55
2016-11-18T02:21:45.033Z,8.49
2016-11-18T02:22:57.526Z,8.48
2016-11-18T02:24:11.218Z,8.52
2016-11-18T02:25:24.909Z,8.57
2016-11-18T02:26:38.629Z,8.5
2016-11-18T02:27:52.336Z,8.57
2016-11-18T02:29:04.753Z,8.5
2016-11-18T02:30:18.483Z,8.57
2016-11-18T02:31:32.232Z,8.53
2016-11-18T02:32:45.919Z,8.49
2016-11-18T02:33:59.640Z,8.5
2016-11-18T02:35:13.344Z,8.52
2016-11-18T02:36:27.041Z,8.63
2016-11-18T02:37:40.760Z,8.63
2016-11-18T02:38:54.484Z,8.53
2016-11-18T02:40:08.210Z,8.5
2016-11-18T02:41:21.911Z,8.52
2016-11-18T02:42:35.614Z,8.63
2016-11-18T02:43:48.002Z,8.67
2016-11-18T02:45:01.765Z,8.58
2016-11-18T02:46:15.488Z,8.63
2016-11-18T02:47:29.189Z,8.61
2016-11-18T02:48:42.881Z,8.58
2016-11-18T02:49:56.575Z,8.61
2016-11-18T02:51:10.287Z,8.58
2016-11-18T02:52:22.812Z,8.6
2016-11-18T02:53:36.566Z,8.58
2016-11-18T02:54:48.974Z,8.66
2016-11-18T02:56:02.709Z,8.66
2016-11-18T02:57:16.415Z,8.61
2016-11-18T02:58:30.119Z,8.58
2016-11-18T02:59:43.989Z,8.64
2016-11-18T03:00:57.739Z,8.68
2016-11-18T03:02:11.443Z,8.63
2016-11-18T03:03:25.152Z,8.68
2016-11-18T03:04:38.906Z,8.64
2016-11-18T03:05:51.322Z,8.58
2016-11-18T03:07:05.181Z,8.67
2016-11-18T03:08:18.888Z,8.68
2016-11-18T03:09:32.609Z,8.61
2016-11-18T03:10:45.025Z,8.67
2016-11-18T03:11:58.734Z,8.63
2016-11-18T03:13:12.548Z,8.75
2016-11-18T03:14:25.028Z,8.61
2016-11-18T03:15:37.528Z,8.7
2016-11-18T03:16:51.244Z,8.68
2016-11-18T03:18:03.673Z,8.68
2016-11-18T03:19:17.519Z,8.7
2016-11-18T03:20:31.213Z,8.71
2016-11-18T03:21:44.913Z,8.77
2016-11-18T03:22:58.606Z,8.71
2016-11-18T03:24:11.232Z,8.79
2016-11-18T03:25:24.937Z,8.74
2016-11-18T03:26:38.648Z,8.8
2016-11-18T03:27:52.342Z,8.66
2016-11-18T03:29:06.293Z,8.77
2016-11-18T03:30:20.064Z,8.74
2016-11-18T03:31:33.787Z,8.68
2016-11-18T03:32:47.547Z,8.7
2016-11-18T03:34:01.287Z,8.74
2016-11-18T03:35:15.003Z,8.87
2016-11-18T03:36:28.701Z,8.83
2016-11-18T03:37:42.407Z,8.82
2016-11-18T03:38:56.108Z,8.83
2016-11-18T03:40:09.808Z,8.83
2016-11-18T03:41:23.537Z,8.71
2016-11-18T03:42:37.282Z,8.75
2016-11-18T03:43:50.966Z,8.71
2016-11-18T03:45:04.714Z,8.66
2016-11-18T03:46:18.673Z,8.74
2016-11-18T03:47:32.378Z,8.66
2016-11-18T03:48:46.102Z,8.66
2016-11-18T03:49:59.794Z,8.6
2016-11-18T03:51:13.497Z,8.68
2016-11-18T03:52:27.192Z,8.58
2016-11-18T03:53:40.900Z,8.66
2016-11-18T03:54:54.591Z,8.6
2016-11-18T03:56:08.312Z,8.63
2016-11-18T03:57:22.030Z,8.64
2016-11-18T03:58:35.774Z,8.79
2016-11-18T03:59:48.180Z,8.7
2016-11-18T04:01:01.893Z,8.66
2016-11-18T04:02:15.585Z,8.74
2016-11-18T04:03:29.294Z,8.6
2016-11-18T04:04:41.730Z,8.67
2016-11-18T04:05:55.521Z,8.77
2016-11-18T04:07:09.268Z,8.71
2016-11-18T04:08:22.968Z,8.66
2016-11-18T04:09:36.679Z,8.57
2016-11-18T04:10:50.369Z,8.63
2016-11-18T04:12:04.071Z,8.75
2016-11-18T04:13:17.757Z,8.67
2016-11-18T04:14:31.453Z,8.63
2016-11-18T04:15:45.238Z,8.71
2016-11-18T04:16:58.956Z,8.58
2016-11-18T04:18:12.909Z,8.57
2016-11-18T04:19:26.604Z,8.57
2016-11-18T04:20:39.005Z,8.55
2016-11-18T04:21:52.925Z,8.61
2016-11-18T04:23:06.653Z,8.48
2016-11-18T04:24:20.356Z,8.52
2016-11-18T04:25:34.064Z,8.53
2016-11-18T04:26:47.763Z,8.52
2016-11-18T04:28:00.191Z,8.49
2016-11-18T04:29:14.039Z,8.5
2016-11-18T04:30:27.771Z,8.53
2016-11-18T04:31:41.467Z,8.64
2016-11-18T04:32:55.167Z,8.58
2016-11-18T04:34:08.862Z,8.55
2016-11-18T04:35:22.552Z,8.57
2016-11-18T04:36:36.244Z,8.61
2016-11-18T04:37:48.831Z,8.58
2016-11-18T04:39:01.290Z,8.6
2016-11-18T04:40:14.983Z,8.61
2016-11-18T04:41:28.701Z,8.66
2016-11-18T04:42:42.394Z,8.58
2016-11-18T04:43:56.143Z,8.58
2016-11-18T04:45:09.832Z,8.6
2016-11-18T04:46:23.579Z,8.68
2016-11-18T04:47:37.379Z,8.66
2016-11-18T04:48:51.081Z,8.67
2016-11-18T04:50:04.775Z,8.8
2016-11-18T04:51:17.191Z,8.66
2016-11-18T04:52:30.891Z,8.68
2016-11-18T04:53:44.607Z,8.63
2016-11-18T04:54:58.397Z,8.63
2016-11-18T04:56:12.157Z,8.6
2016-11-18T04:57:25.853Z,8.58
2016-11-18T04:58:38.259Z,8.61
2016-11-18T04:59:50.753Z,8.52
2016-11-18T05:01:04.469Z,8.61
2016-11-18T05:02:18.183Z,8.6
2016-11-18T05:03:31.899Z,8.55
2016-11-18T05:04:45.602Z,8.58
2016-11-18T05:05:59.336Z,8.61
2016-11-18T05:07:13.033Z,8.68
2016-11-18T05:08:25.470Z,8.6
2016-11-18T05:09:39.265Z,8.6
2016-11-18T05:10:52.995Z,8.64
2016-11-18T05:12:06.696Z,8.66
2016-11-18T05:13:20.407Z,8.77
2016-11-18T05:14:34.115Z,8.6
2016-11-18T05:15:47.806Z,8.61
2016-11-18T05:17:00.283Z,8.66
2016-11-18T05:18:14.005Z,8.6
2016-11-18T05:19:27.992Z,8.67
2016-11-18T05:20:41.819Z,8.61
2016-11-18T05:21:55.576Z,8.6
2016-11-18T05:23:08.001Z,8.67
2016-11-18T05:24:21.698Z,8.61
2016-11-18T05:25:35.420Z,8.57
2016-11-18T05:26:49.131Z,8.68
2016-11-18T05:28:02.840Z,8.55
2016-11-18T05:29:16.526Z,8.48
2016-11-18T05:30:30.317Z,8.61
2016-11-18T05:31:44.021Z,8.46
2016-11-18T05:32:57.726Z,8.57
2016-11-18T05:34:11.419Z,8.53
2016-11-18T05:35:25.145Z,8.49
2016-11-18T05:36:38.843Z,8.53
2016-11-18T05:37:52.546Z,8.63
2016-11-18T05:39:05.067Z,8.5
2016-11-18T05:40:18.805Z,8.55
2016-11-18T05:41:32.536Z,8.49
2016-11-18T05:42:46.246Z,8.48
2016-11-18T05:43:58.655Z,8.57
2016-11-18T05:45:12.489Z,8.58
2016-11-18T05:46:24.908Z,8.52
2016-11-18T05:47:37.343Z,8.61
2016-11-18T05:48:51.133Z,8.46
2016-11-18T05:50:05.062Z,8.6
2016-11-18T05:51:18.942Z,8.55
2016-11-18T05:52:31.415Z,8.5
2016-11-18T05:53:45.141Z,8.53
2016-11-18T05:54:57.573Z,8.57
2016-11-18T05:56:11.277Z,8.6
2016-11-18T05:57:24.975Z,8.52
2016-11-18T05:58:38.686Z,8.61
2016-11-18T05:59:52.389Z,8.61
2016-11-18T06:01:06.392Z,8.46
2016-11-18T06:02:20.149Z,8.53
2016-11-18T06:03:32.585Z,8.52
2016-11-18T06:04:46.322Z,8.39
2016-11-18T06:06:00.092Z,8.55
2016-11-18T06:07:14.021Z,8.52
2016-11-18T06:08:26.471Z,8.55
2016-11-18T06:09:40.177Z,8.5
2016-11-18T06:10:53.946Z,8.43
2016-11-18T06:12:07.687Z,8.48
2016-11-18T06:13:21.381Z,8.42
2016-11-18T06:14:35.087Z,8.52
2016-11-18T06:15:48.849Z,8.55
2016-11-18T06:17:02.546Z,8.57
2016-11-18T06:18:16.283Z,8.55
2016-11-18T06:19:30.018Z,8.57
2016-11-18T06:20:43.780Z,8.5
2016-11-18T06:21:57.502Z,8.53
2016-11-18T06:23:11.448Z,8.57
2016-11-18T06:24:25.158Z,8.53
2016-11-18T06:25:38.864Z,8.55
2016-11-18T06:26:51.414Z,8.58
2016-11-18T06:28:05.120Z,8.55
2016-11-18T06:29:18.836Z,8.57
2016-11-18T06:30:32.540Z,8.75
2016-11-18T06:31:46.262Z,8.74
2016-11-18T06:32:59.964Z,8.75
2016-11-18T06:34:14.116Z,8.9
2016-11-18T06:35:27.807Z,8.97
2016-11-18T06:36:41.514Z,8.98
2016-11-18T06:37:55.254Z,8.98
2016-11-18T06:39:08.971Z,9.08
2016-11-18T06:40:22.669Z,9.04
2016-11-18T06:41:36.384Z,9.16
2016-11-18T06:42:50.361Z,9.08
2016-11-18T06:44:04.058Z,9.09
2016-11-18T06:45:17.768Z,8.98
2016-11-18T06:46:31.476Z,9.05
2016-11-18T06:47:45.210Z,9.02
2016-11-18T06:48:58.913Z,9.01
2016-11-18T06:50:12.608Z,9.01
2016-11-18T06:51:26.439Z,9.07
2016-11-18T06:52:40.161Z,9
2016-11-18T06:53:53.900Z,8.93
2016-11-18T06:55:06.310Z,9.02
2016-11-18T06:56:20.011Z,9.01
2016-11-18T06:57:33.736Z,9.05
2016-11-18T06:58:47.598Z,9.02
2016-11-18T07:00:01.316Z,9.15
2016-11-18T07:01:13.741Z,9.17
2016-11-18T07:02:27.448Z,9.08
2016-11-18T07:03:41.134Z,9
2016-11-18T07:04:54.862Z,8.98
2016-11-18T07:06:08.801Z,9.04
2016-11-18T07:07:22.511Z,9.04
2016-11-18T07:08:36.227Z,9
2016-11-18T07:09:49.934Z,9
2016-11-18T07:11:01.065Z,9.04
2016-11-18T07:12:14.769Z,9.01
2016-11-18T07:13:28.469Z,9
2016-11-18T07:14:42.160Z,8.98
2016-11-18T07:15:54.623Z,9
2016-11-18T07:17:08.330Z,9
2016-11-18T07:18:22.200Z,9.09
2016-11-18T07:19:35.912Z,9.09
2016-11-18T07:20:49.639Z,9.05
2016-11-18T07:22:03.354Z,9.12
2016-11-18T07:23:17.061Z,9.07
2016-11-18T07:24:29.549Z,9.11
2016-11-18T07:25:43.246Z,9.12
2016-11-18T07:26:56.977Z,9.01
2016-11-18T07:28:10.680Z,9.16
2016-11-18T07:29:24.391Z,9.09
2016-11-18T07:30:38.101Z,9.08
2016-11-18T07:31:50.545Z,9.17
2016-11-18T07:33:02.975Z,9.07
2016-11-18T07:34:16.696Z,9.15
2016-11-18T07:35:30.485Z,9.16
2016-11-18T07:36:44.200Z,9.23
2016-11-18T07:37:57.904Z,9.26
2016-11-18T07:39:11.613Z,9.29
2016-11-18T07:40:25.357Z,9.29
2016-11-18T07:41:39.354Z,9.35
2016-11-18T07:42:53.058Z,9.37
2016-11-18T07:44:06.753Z,9.41
2016-11-18T07:45:20.453Z,9.3
2016-11-18T07:46:34.161Z,9.41
2016-11-18T07:47:47.848Z,9.38
2016-11-18T07:49:00.338Z,9.4
2016-11-18T07:50:14.034Z,9.42
2016-11-18T07:51:27.741Z,9.34
2016-11-18T07:52:41.457Z,9.55
2016-11-18T07:53:55.160Z,9.53
2016-11-18T07:55:08.874Z,9.66
2016-11-18T07:56:22.568Z,9.8
2016-11-18T07:57:36.266Z,9.78
2016-11-18T07:58:49.950Z,9.75
2016-11-18T08:00:03.649Z,9.74
2016-11-18T08:01:17.345Z,9.81
2016-11-18T08:02:31.095Z,9.85
2016-11-18T08:03:44.830Z,9.85
2016-11-18T08:04:58.724Z,9.85
2016-11-18T08:06:12.443Z,9.89
2016-11-18T08:07:26.135Z,10
2016-11-18T08:08:38.559Z,10.13
2016-11-18T08:09:52.260Z,10.3
2016-11-18T08:11:06.033Z,10.34
2016-11-18T08:12:19.781Z,10.47
2016-11-18T08:13:32.181Z,11.59
2016-11-18T08:14:45.902Z,12.81
2016-11-18T08:15:59.601Z,14.21
2016-11-18T08:17:13.294Z,15.09
2016-11-18T08:18:26.997Z,15.78
2016-11-18T08:19:40.705Z,16.54
2016-11-18T08:20:54.407Z,17.52
2016-11-18T08:22:08.151Z,18.01
2016-11-18T08:23:20.577Z,16.76
2016-11-18T08:24:34.274Z,15.17
2016-11-18T08:25:46.689Z,14.14
2016-11-18T08:27:00.641Z,14.28
2016-11-18T08:28:14.373Z,14.5
2016-11-18T08:29:28.331Z,15.45
2016-11-18T08:30:40.753Z,16.34
2016-11-18T08:31:54.455Z,15.94
2016-11-18T08:33:08.161Z,13.96
2016-11-18T08:34:21.864Z,13.16
2016-11-18T08:35:34.434Z,11.99
2016-11-18T08:36:48.589Z,10.88
2016-11-18T08:38:02.510Z,10.18
2016-11-18T08:39:16.228Z,9.41
2016-11-18T08:40:29.961Z,8.95
2016-11-18T08:41:43.721Z,8.34
2016-11-18T08:42:57.430Z,7.94
2016-11-18T08:44:09.925Z,7.84
2016-11-18T08:45:22.406Z,7.56
2016-11-18T08:46:34.843Z,7.52
2016-11-18T08:47:48.553Z,7.36
2016-11-18T08:49:02.262Z,7.29
2016-11-18T08:50:16.004Z,7.26
2016-11-18T08:51:29.765Z,7.22
2016-11-18T08:52:43.483Z,7.24
2016-11-18T08:53:55.900Z,7.13
2016-11-18T08:55:09.594Z,7.02
2016-11-18T08:56:23.325Z,7.05
2016-11-18T08:57:37.041Z,7.03
2016-11-18T08:58:50.755Z,6.99
2016-11-18T09:00:04.448Z,7.06
2016-11-18T09:01:18.161Z,6.97
2016-11-18T09:02:31.901Z,6.99
2016-11-18T09:03:44.314Z,7.11
2016-11-18T09:04:58.017Z,7.13
2016-11-18T09:06:11.728Z,7.13
2016-11-18T09:07:25.437Z,7
2016-11-18T09:08:39.152Z,7.03
2016-11-18T09:09:51.605Z,7
2016-11-18T09:11:05.368Z,6.99
2016-11-18T09:12:19.069Z,6.96
2016-11-18T09:13:32.773Z,6.97
2016-11-18T09:14:46.485Z,6.99
2016-11-18T09:15:59.396Z,6.96
2016-11-18T09:17:13.152Z,7.05
2016-11-18T09:18:25.574Z,7.15
2016-11-18T09:19:39.755Z,7.14
2016-11-18T09:20:53.446Z,7.03
2016-11-18T09:22:04.563Z,7.02
2016-11-18T09:23:18.332Z,6.95
2016-11-18T09:24:32.064Z,6.95
2016-11-18T09:25:45.763Z,6.92
2016-11-18T09:26:59.472Z,6.93
2016-11-18T09:28:13.232Z,6.87
2016-11-18T09:29:26.918Z,6.92
2016-11-18T09:30:40.614Z,6.95
2016-11-18T09:31:54.332Z,6.84
2016-11-18T09:33:08.056Z,6.77
2016-11-18T09:34:21.760Z,6.59
2016-11-18T09:35:35.532Z,6.56
2016-11-18T09:36:49.247Z,6.54
2016-11-18T09:38:02.978Z,6.57
2016-11-18T09:39:16.728Z,6.52
2016-11-18T09:40:30.469Z,6.41
2016-11-18T09:41:44.169Z,6.39
2016-11-18T09:42:57.878Z,6.38
2016-11-18T09:44:10.291Z,6.38
2016-11-18T09:45:24.146Z,6.27
2016-11-18T09:46:37.870Z,6.24
2016-11-18T09:47:51.578Z,6.19
2016-11-18T09:49:03.989Z,6.11
2016-11-18T09:50:17.714Z,6.05
2016-11-18T09:51:30.120Z,5.98
2016-11-18T09:52:43.842Z,6.02
2016-11-18T09:53:57.567Z,6.03
2016-11-18T09:55:11.298Z,5.84
2016-11-18T09:56:25.006Z,5.74
2016-11-18T09:57:38.751Z,5.88
2016-11-18T09:58:51.424Z,5.93
2016-11-18T10:00:03.833Z,5.93
2016-11-18T10:01:17.586Z,5.99
2016-11-18T10:02:31.313Z,5.94
2016-11-18T10:03:45.019Z,6.08
2016-11-18T10:04:58.755Z,6.19
2016-11-18T10:06:12.490Z,6.3
2016-11-18T10:07:26.200Z,6.26
2016-11-18T10:08:39.934Z,6.19
2016-11-18T10:09:53.643Z,6.21
2016-11-18T10:11:07.426Z,6.19
2016-11-18T10:12:21.228Z,6.16
2016-11-18T10:13:34.950Z,6.08
2016-11-18T10:14:48.665Z,6.02
2016-11-18T10:16:02.405Z,6.06
2016-11-18T10:17:16.136Z,6.06
2016-11-18T10:18:29.844Z,5.96
2016-11-18T10:19:42.253Z,5.98
2016-11-18T10:20:56.067Z,6.02
2016-11-18T10:22:09.767Z,5.94
2016-11-18T10:23:23.463Z,5.9
2016-11-18T10:24:37.165Z,5.9
2016-11-18T10:25:50.871Z,5.9
2016-11-18T10:27:04.576Z,6.01
2016-11-18T10:28:18.265Z,6.02
2016-11-18T10:29:31.965Z,6.05
2016-11-18T10:30:45.691Z,6.12
2016-11-18T10:31:59.393Z,6.27
2016-11-18T10:33:13.101Z,6.34
2016-11-18T10:34:26.871Z,6.28
2016-11-18T10:35:40.909Z,6.45
2016-11-18T10:36:54.636Z,6.39
2016-11-18T10:38:08.392Z,6.44
2016-11-18T10:39:22.091Z,6.48
2016-11-18T10:40:35.895Z,6.42
2016-11-18T10:41:49.716Z,6.59
2016-11-18T10:43:03.428Z,6.69
2016-11-18T10:44:17.134Z,6.74
2016-11-18T10:45:30.833Z,6.77
2016-11-18T10:46:44.545Z,6.59
2016-11-18T10:47:58.288Z,6.66
2016-11-18T10:49:11.991Z,6.62
2016-11-18T10:50:25.688Z,6.54
2016-11-18T10:51:38.177Z,6.46
2016-11-18T10:52:51.931Z,6.48
2016-11-18T10:54:05.628Z,6.49
2016-11-18T10:55:19.411Z,6.48
2016-11-18T10:56:33.102Z,6.49
2016-11-18T10:57:46.811Z,6.57
2016-11-18T10:59:00.505Z,6.56
2016-11-18T11:00:14.236Z,6.42
2016-11-18T11:01:28.169Z,6.42
2016-11-18T11:02:41.868Z,6.45
2016-11-18T11:03:55.573Z,6.45
2016-11-18T11:05:09.288Z,6.45
2016-11-18T11:06:23.027Z,6.39
2016-11-18T11:07:36.756Z,6.45
2016-11-18T11:08:50.493Z,6.41
2016-11-18T11:10:04.207Z,6.48
2016-11-18T11:11:18.129Z,6.57
2016-11-18T11:12:31.861Z,6.53
2016-11-18T11:13:45.567Z,6.44
2016-11-18T11:14:59.272Z,6.46
2016-11-18T11:16:12.997Z,6.56
2016-11-18T11:17:26.686Z,6.63
2016-11-18T11:18:40.423Z,6.62
2016-11-18T11:19:54.136Z,6.67
2016-11-18T11:21:07.851Z,6.69
2016-11-18T11:22:21.630Z,6.75
2016-11-18T11:23:35.345Z,6.78
2016-11-18T11:24:49.143Z,6.75
2016-11-18T11:26:02.846Z,6.82
2016-11-18T11:27:16.556Z,6.78
2016-11-18T11:28:30.274Z,6.79
2016-11-18T11:29:43.979Z,6.82
2016-11-18T11:30:56.414Z,6.87
2016-11-18T11:32:10.171Z,6.87
2016-11-18T11:33:23.909Z,6.96
2016-11-18T11:34:36.335Z,6.96
2016-11-18T11:35:50.021Z,7.17
2016-11-18T11:37:02.540Z,7.14
2016-11-18T11:38:16.295Z,7.31
2016-11-18T11:39:30.011Z,7.41
2016-11-18T11:40:43.723Z,7.44
2016-11-18T11:41:57.417Z,7.51
2016-11-18T11:43:11.158Z,7.49
2016-11-18T11:44:25.101Z,7.67
2016-11-18T11:45:38.851Z,7.73
2016-11-18T11:46:52.589Z,7.7
2016-11-18T11:48:06.300Z,7.69
2016-11-18T11:49:20.032Z,7.74
2016-11-18T11:50:33.757Z,7.77
2016-11-18T11:51:47.449Z,7.76
2016-11-18T11:52:59.903Z,7.72
2016-11-18T11:54:13.614Z,7.58
2016-11-18T11:55:26.067Z,7.61
2016-11-18T11:56:39.997Z,7.56
2016-11-18T11:57:53.689Z,7.56
2016-11-18T11:59:07.408Z,7.66
2016-11-18T12:00:20.094Z,7.66
2016-11-18T12:01:34.030Z,7.79
2016-11-18T12:02:46.444Z,7.94
2016-11-18T12:04:00.157Z,8.21
2016-11-18T12:05:13.894Z,9.01
2016-11-18T12:06:28.004Z,11.09
2016-11-18T12:07:41.706Z,12.26
2016-11-18T12:08:55.408Z,12.92
2016-11-18T12:10:07.831Z,12.38
2016-11-18T12:11:21.576Z,11.68
2016-11-18T12:12:35.300Z,11
2016-11-18T12:13:50.612Z,12.95
2016-11-18T12:15:05.841Z,15.51
2016-11-18T12:16:21.094Z,16.35
2016-11-18T12:17:36.431Z,17.64
2016-11-18T12:18:51.674Z,19.19
2016-11-18T12:20:06.981Z,20.16
2016-11-18T12:21:22.223Z,20.34
2016-11-18T12:22:35.937Z,18.94
2016-11-18T12:23:49.748Z,16.82
2016-11-18T12:25:03.471Z,15.11
2016-11-18T12:26:17.195Z,13.94
2016-11-18T12:27:30.914Z,13.26
2016-11-18T12:28:44.657Z,12.63
2016-11-18T12:29:58.400Z,12.11
2016-11-18T12:31:12.129Z,11.79
2016-11-18T12:32:25.848Z,11.46
2016-11-18T12:33:39.778Z,11.3
2016-11-18T12:34:53.495Z,11.27
2016-11-18T12:36:07.204Z,11.4
2016-11-18T12:37:20.914Z,11.46
2016-11-18T12:38:34.634Z,11.4
2016-11-18T12:39:48.381Z,11.43
2016-11-18T12:41:02.099Z,11.17
2016-11-18T12:42:15.833Z,11.09
2016-11-18T12:43:29.642Z,10.8
2016-11-18T12:44:43.347Z,10.84
2016-11-18T12:45:57.107Z,10.84
2016-11-18T12:47:10.824Z,10.95
2016-11-18T12:48:24.550Z,10.84
2016-11-18T12:49:38.270Z,10.57
2016-11-18T12:50:52.038Z,10.37
2016-11-18T12:52:05.981Z,10.13
2016-11-18T12:53:19.723Z,9.88
2016-11-18T12:54:33.434Z,9.77
2016-11-18T12:55:47.149Z,9.5
2016-11-18T12:57:00.893Z,9.55
2016-11-18T12:58:14.620Z,9.55
2016-11-18T12:59:28.393Z,9.37
2016-11-18T13:00:40.819Z,9.45
2016-11-18T13:01:54.565Z,9.38
2016-11-18T13:03:08.326Z,9.37
2016-11-18T13:04:22.040Z,9.41
2016-11-18T13:05:35.773Z,9.52
2016-11-18T13:06:49.508Z,9.6
2016-11-18T13:08:03.486Z,9.62
2016-11-18T13:09:17.239Z,9.81
2016-11-18T13:10:30.949Z,10.03
2016-11-18T13:11:44.657Z,10.11
2016-11-18T13:12:58.605Z,10.19
2016-11-18T13:14:12.330Z,10.15
2016-11-18T13:15:24.743Z,10
2016-11-18T13:16:37.179Z,9.83
2016-11-18T13:17:50.889Z,9.6
2016-11-18T13:19:04.603Z,9.56
2016-11-18T13:20:18.400Z,9.4
2016-11-18T13:21:32.112Z,9.29
2016-11-18T13:22:45.826Z,9.23
2016-11-18T13:23:59.553Z,9.17
2016-11-18T13:25:13.263Z,9.27
2016-11-18T13:26:26.965Z,9.23
2016-11-18T13:27:40.670Z,9.2
2016-11-18T13:28:53.084Z,9.22
2016-11-18T13:30:06.804Z,9.26
2016-11-18T13:31:20.503Z,9.33
2016-11-18T13:32:32.930Z,9.26
2016-11-18T13:33:46.668Z,9.29
2016-11-18T13:35:00.659Z,9.17
2016-11-18T13:36:14.375Z,9.2
2016-11-18T13:37:28.095Z,9.23
2016-11-18T13:38:42.031Z,9.34
2016-11-18T13:39:55.720Z,9.4
2016-11-18T13:41:09.442Z,9.35
2016-11-18T13:42:23.155Z,9.52
2016-11-18T13:43:36.869Z,9.38
2016-11-18T13:44:50.603Z,9.27
2016-11-18T13:46:04.331Z,9.23
2016-11-18T13:47:18.063Z,9.23
2016-11-18T13:48:32.205Z,9.2
2016-11-18T13:49:47.930Z,9.09
2016-11-18T13:51:05.625Z,9.02
2016-11-18T13:52:22.265Z,9.04
2016-11-18T13:53:36.007Z,9.02
2016-11-18T13:54:48.440Z,9.02
2016-11-18T13:56:02.172Z,9.01
2016-11-18T13:57:15.876Z,9.04
2016-11-18T13:58:29.645Z,8.93
2016-11-18T13:59:43.377Z,9.05
2016-11-18T14:00:57.099Z,8.92
2016-11-18T14:02:11.047Z,8.95
2016-11-18T14:03:24.920Z,8.79
2016-11-18T14:04:38.632Z,8.75
2016-11-18T14:05:52.363Z,8.71
2016-11-18T14:07:06.133Z,8.64
2016-11-18T14:08:19.871Z,8.63
2016-11-18T14:09:33.572Z,8.6
2016-11-18T14:10:47.336Z,8.74
2016-11-18T14:12:01.083Z,8.67
2016-11-18T14:13:14.851Z,8.7
2016-11-18T14:14:27.523Z,8.66
2016-11-18T14:15:41.220Z,8.61
2016-11-18T14:16:54.946Z,8.58
2016-11-18T14:18:08.666Z,8.49
2016-11-18T14:19:22.427Z,8.55
2016-11-18T14:20:36.164Z,8.53
2016-11-18T14:21:49.890Z,8.49
2016-11-18T14:23:03.590Z,8.45
2016-11-18T14:24:17.288Z,8.55
2016-11-18T14:25:31.008Z,8.52
2016-11-18T14:26:44.868Z,8.42
2016-11-18T14:27:58.652Z,8.46
2016-11-18T14:29:12.367Z,8.45
2016-11-18T14:30:26.168Z,8.55
2016-11-18T14:31:39.878Z,8.45
2016-11-18T14:32:53.634Z,8.49
2016-11-18T14:34:07.463Z,8.37
2016-11-18T14:35:21.191Z,8.42
2016-11-18T14:36:34.927Z,8.39
2016-11-18T14:37:48.638Z,8.42
2016-11-18T14:39:02.363Z,8.31
2016-11-18T14:40:16.072Z,8.3
2016-11-18T14:41:29.774Z,8.32
2016-11-18T14:42:43.496Z,8.3
2016-11-18T14:43:57.454Z,8.32
2016-11-18T14:45:11.166Z,8.31
2016-11-18T14:46:24.897Z,8.3
2016-11-18T14:47:38.605Z,8.17
2016-11-18T14:48:52.315Z,8.28
2016-11-18T14:50:06.050Z,8.2
2016-11-18T14:51:20.107Z,8.1
2016-11-18T14:52:33.841Z,7.98
2016-11-18T14:53:47.825Z,7.74
2016-11-18T14:55:01.605Z,7.66
2016-11-18T14:56:15.316Z,7.56
2016-11-18T14:57:29.076Z,7.51
2016-11-18T14:58:42.780Z,7.28
2016-11-18T14:59:56.497Z,7.21
2016-11-18T15:01:10.257Z,7.22
2016-11-18T15:02:24.050Z,7.22
2016-11-18T15:03:37.986Z,7.11
2016-11-18T15:04:51.975Z,7.18
2016-11-18T15:06:05.675Z,7.14
2016-11-18T15:07:19.380Z,7.13
2016-11-18T15:08:33.100Z,7.02
2016-11-18T15:09:46.817Z,6.96
2016-11-18T15:11:00.532Z,6.95
2016-11-18T15:12:14.276Z,6.78
2016-11-18T15:13:28.297Z,6.84
2016-11-18T15:14:42.015Z,6.62
2016-11-18T15:15:55.742Z,6.54
2016-11-18T15:17:09.505Z,6.46
2016-11-18T15:18:23.450Z,6.53
2016-11-18T15:19:37.262Z,6.45
2016-11-18T15:20:50.983Z,6.31
2016-11-18T15:22:04.919Z,6.38
2016-11-18T15:23:18.648Z,6.36
2016-11-18T15:24:32.363Z,6.34
2016-11-18T15:25:44.779Z,6.16
2016-11-18T15:26:58.573Z,6.14
2016-11-18T15:28:12.332Z,6.14
2016-11-18T15:29:26.081Z,5.94
2016-11-18T15:30:39.796Z,6.03
2016-11-18T15:31:53.533Z,6.05
2016-11-18T15:33:07.305Z,5.9
2016-11-18T15:34:21.140Z,5.88
2016-11-18T15:35:35.056Z,5.82
2016-11-18T15:36:47.479Z,5.86
2016-11-18T15:38:01.341Z,5.82
2016-11-18T15:39:15.084Z,5.74
2016-11-18T15:40:28.816Z,5.68
2016-11-18T15:41:41.414Z,5.75
2016-11-18T15:42:53.869Z,5.69
2016-11-18T15:44:07.571Z,5.74
2016-11-18T15:45:21.436Z,5.67
2016-11-18T15:46:33.884Z,5.75
2016-11-18T15:47:47.603Z,5.77
2016-11-18T15:49:00.033Z,5.74
2016-11-18T15:50:13.821Z,5.82
2016-11-18T15:51:26.234Z,5.8
2016-11-18T15:52:39.945Z,5.82
2016-11-18T15:53:53.673Z,5.75
2016-11-18T15:55:07.430Z,5.88
2016-11-18T15:56:21.158Z,5.8
2016-11-18T15:57:34.934Z,5.94
2016-11-18T15:58:47.368Z,5.88
2016-11-18T16:00:01.119Z,5.84
2016-11-18T16:01:13.750Z,5.8
2016-11-18T16:02:26.204Z,5.8
2016-11-18T16:03:38.626Z,5.86
2016-11-18T16:04:52.380Z,5.8
2016-11-18T16:06:06.213Z,5.79
2016-11-18T16:07:19.969Z,5.75
2016-11-18T16:08:32.403Z,6.01
2016-11-18T16:09:46.118Z,5.93
2016-11-18T16:11:00.075Z,5.93
2016-11-18T16:12:13.774Z,5.79
2016-11-18T16:13:27.497Z,5.79
2016-11-18T16:14:41.256Z,5.8
2016-11-18T16:15:54.981Z,5.79
2016-11-18T16:17:08.676Z,5.88
2016-11-18T16:18:22.426Z,5.83
2016-11-18T16:19:36.181Z,5.93
2016-11-18T16:20:49.954Z,5.8
2016-11-18T16:22:03.907Z,5.8